sensor_id;sensor_type;location;lat;lon;timestamp;P1;durP1;ratioP1;P2;durP2;ratioP2
79249;SDS011;68679;51.030;7.584;2023-05-19T00:01:33;6.43;;;3.45;;
79249;SDS011;68679;51.030;7.584;2023-05-19T00:04:01;6.70;;;2.95;;
79249;SDS011;68679;51.030;7.584;2023-05-19T00:06:29;8.50;;;3.40;;
79249;SDS011;68679;51.030;7.584;2023-05-19T00:09:00;6.07;;;2.83;;
79249;SDS011;68679;51.030;7.584;2023-05-19T00:11:27;8.23;;;3.60;;
79249;SDS011;68679;51.030;7.584;2023-05-19T00:13:53;7.07;;;3.28;;
79249;SDS011;68679;51.030;7.584;2023-05-19T00:16:20;7.25;;;3.00;;
79249;SDS011;68679;51.030;7.584;2023-05-19T00:18:47;7.28;;;3.00;;
79249;SDS011;68679;51.030;7.584;2023-05-19T00:21:13;4.93;;;2.60;;
79249;SDS011;68679;51.030;7.584;2023-05-19T00:23:38;5.20;;;3.00;;
79249;SDS011;68679;51.030;7.584;2023-05-19T00:26:03;5.17;;;2.87;;
79249;SDS011;68679;51.030;7.584;2023-05-19T00:28:28;5.43;;;2.90;;
79249;SDS011;68679;51.030;7.584;2023-05-19T00:30:54;5.33;;;2.57;;
79249;SDS011;68679;51.030;7.584;2023-05-19T00:33:20;4.72;;;2.42;;
79249;SDS011;68679;51.030;7.584;2023-05-19T00:35:45;6.13;;;3.00;;
79249;SDS011;68679;51.030;7.584;2023-05-19T00:38:10;9.80;;;2.87;;
79249;SDS011;68679;51.030;7.584;2023-05-19T00:40:35;6.13;;;2.63;;
79249;SDS011;68679;51.030;7.584;2023-05-19T00:43:01;8.63;;;2.80;;
79249;SDS011;68679;51.030;7.584;2023-05-19T00:45:27;9.25;;;2.53;;
79249;SDS011;68679;51.030;7.584;2023-05-19T00:47:52;7.88;;;3.05;;
79249;SDS011;68679;51.030;7.584;2023-05-19T00:50:18;6.47;;;2.50;;
79249;SDS011;68679;51.030;7.584;2023-05-19T00:52:43;8.90;;;3.28;;
79249;SDS011;68679;51.030;7.584;2023-05-19T00:55:08;10.07;;;2.87;;
79249;SDS011;68679;51.030;7.584;2023-05-19T00:57:35;8.68;;;2.65;;
79249;SDS011;68679;51.030;7.584;2023-05-19T01:00:00;7.88;;;2.75;;
79249;SDS011;68679;51.030;7.584;2023-05-19T01:02:26;6.78;;;2.90;;
79249;SDS011;68679;51.030;7.584;2023-05-19T01:04:53;7.88;;;3.28;;
79249;SDS011;68679;51.030;7.584;2023-05-19T01:07:23;7.07;;;2.75;;
79249;SDS011;68679;51.030;7.584;2023-05-19T01:09:49;6.38;;;2.85;;
79249;SDS011;68679;51.030;7.584;2023-05-19T01:12:15;6.22;;;2.83;;
79249;SDS011;68679;51.030;7.584;2023-05-19T01:14:41;7.88;;;3.00;;
79249;SDS011;68679;51.030;7.584;2023-05-19T01:17:08;6.55;;;3.00;;
79249;SDS011;68679;51.030;7.584;2023-05-19T01:20:00;6.07;;;2.60;;
79249;SDS011;68679;51.030;7.584;2023-05-19T01:28:25;6.60;;;2.70;;
79249;SDS011;68679;51.030;7.584;2023-05-19T01:31:04;5.57;;;2.60;;
79249;SDS011;68679;51.030;7.584;2023-05-19T01:33:31;10.10;;;3.05;;
79249;SDS011;68679;51.030;7.584;2023-05-19T01:35:58;7.13;;;2.50;;
79249;SDS011;68679;51.030;7.584;2023-05-19T01:38:24;7.47;;;2.85;;
79249;SDS011;68679;51.030;7.584;2023-05-19T01:40:52;6.50;;;3.00;;
79249;SDS011;68679;51.030;7.584;2023-05-19T01:43:19;6.88;;;3.00;;
79249;SDS011;68679;51.030;7.584;2023-05-19T01:45:47;7.55;;;2.75;;
79249;SDS011;68679;51.030;7.584;2023-05-19T01:48:13;6.22;;;2.50;;
79249;SDS011;68679;51.030;7.584;2023-05-19T01:50:40;6.13;;;2.55;;
79249;SDS011;68679;51.030;7.584;2023-05-19T01:53:06;5.85;;;2.47;;
79249;SDS011;68679;51.030;7.584;2023-05-19T01:55:31;7.53;;;2.60;;
79249;SDS011;68679;51.030;7.584;2023-05-19T02:00:52;8.23;;;2.60;;
79249;SDS011;68679;51.030;7.584;2023-05-19T02:06:27;5.47;;;2.20;;
79249;SDS011;68679;51.030;7.584;2023-05-19T02:09:01;8.43;;;2.28;;
79249;SDS011;68679;51.030;7.584;2023-05-19T02:11:36;6.55;;;2.65;;
79249;SDS011;68679;51.030;7.584;2023-05-19T02:15:05;5.90;;;2.58;;
79249;SDS011;68679;51.030;7.584;2023-05-19T02:17:14;9.25;;;2.83;;
79249;SDS011;68679;51.030;7.584;2023-05-19T02:19:41;8.73;;;2.38;;
79249;SDS011;68679;51.030;7.584;2023-05-19T02:22:07;5.93;;;2.25;;
79249;SDS011;68679;51.030;7.584;2023-05-19T02:24:32;9.40;;;2.57;;
79249;SDS011;68679;51.030;7.584;2023-05-19T02:26:57;7.03;;;2.60;;
79249;SDS011;68679;51.030;7.584;2023-05-19T02:29:23;6.75;;;2.42;;
79249;SDS011;68679;51.030;7.584;2023-05-19T02:31:48;5.80;;;2.80;;
79249;SDS011;68679;51.030;7.584;2023-05-19T02:34:14;6.68;;;2.40;;
79249;SDS011;68679;51.030;7.584;2023-05-19T02:36:39;4.97;;;2.50;;
79249;SDS011;68679;51.030;7.584;2023-05-19T02:39:07;7.30;;;3.08;;
79249;SDS011;68679;51.030;7.584;2023-05-19T02:41:33;4.45;;;2.50;;
79249;SDS011;68679;51.030;7.584;2023-05-19T02:43:58;8.07;;;2.60;;
79249;SDS011;68679;51.030;7.584;2023-05-19T02:46:24;7.23;;;2.83;;
79249;SDS011;68679;51.030;7.584;2023-05-19T02:48:49;6.30;;;2.47;;
79249;SDS011;68679;51.030;7.584;2023-05-19T02:51:15;5.30;;;3.13;;
79249;SDS011;68679;51.030;7.584;2023-05-19T02:53:41;7.63;;;2.73;;
79249;SDS011;68679;51.030;7.584;2023-05-19T02:56:06;7.17;;;3.60;;
79249;SDS011;68679;51.030;7.584;2023-05-19T02:58:31;5.57;;;2.50;;
79249;SDS011;68679;51.030;7.584;2023-05-19T03:00:56;6.33;;;2.53;;
79249;SDS011;68679;51.030;7.584;2023-05-19T03:03:22;6.37;;;2.60;;
79249;SDS011;68679;51.030;7.584;2023-05-19T03:05:47;10.55;;;3.50;;
79249;SDS011;68679;51.030;7.584;2023-05-19T03:08:13;4.73;;;2.43;;
79249;SDS011;68679;51.030;7.584;2023-05-19T03:10:38;7.00;;;3.30;;
79249;SDS011;68679;51.030;7.584;2023-05-19T03:13:03;8.75;;;2.53;;
79249;SDS011;68679;51.030;7.584;2023-05-19T03:15:29;6.53;;;2.60;;
79249;SDS011;68679;51.030;7.584;2023-05-19T03:17:54;4.55;;;2.53;;
79249;SDS011;68679;51.030;7.584;2023-05-19T03:20:20;9.15;;;2.50;;
79249;SDS011;68679;51.030;7.584;2023-05-19T03:22:45;9.07;;;2.42;;
79249;SDS011;68679;51.030;7.584;2023-05-19T03:25:11;7.67;;;2.30;;
79249;SDS011;68679;51.030;7.584;2023-05-19T03:27:36;5.03;;;2.33;;
79249;SDS011;68679;51.030;7.584;2023-05-19T03:30:01;7.27;;;2.60;;
79249;SDS011;68679;51.030;7.584;2023-05-19T03:32:27;6.47;;;2.45;;
79249;SDS011;68679;51.030;7.584;2023-05-19T03:34:52;7.27;;;2.43;;
79249;SDS011;68679;51.030;7.584;2023-05-19T03:37:17;7.17;;;3.23;;
79249;SDS011;68679;51.030;7.584;2023-05-19T03:39:42;3.60;;;2.33;;
79249;SDS011;68679;51.030;7.584;2023-05-19T03:42:08;5.43;;;2.40;;
79249;SDS011;68679;51.030;7.584;2023-05-19T03:44:33;5.37;;;2.67;;
79249;SDS011;68679;51.030;7.584;2023-05-19T03:46:58;4.27;;;2.27;;
79249;SDS011;68679;51.030;7.584;2023-05-19T03:49:24;7.53;;;2.37;;
79249;SDS011;68679;51.030;7.584;2023-05-19T03:51:49;5.17;;;2.30;;
79249;SDS011;68679;51.030;7.584;2023-05-19T03:54:14;9.32;;;2.75;;
79249;SDS011;68679;51.030;7.584;2023-05-19T03:56:40;9.52;;;3.17;;
79249;SDS011;68679;51.030;7.584;2023-05-19T03:59:07;9.00;;;3.17;;
79249;SDS011;68679;51.030;7.584;2023-05-19T04:01:34;6.97;;;2.55;;
79249;SDS011;68679;51.030;7.584;2023-05-19T04:04:00;6.63;;;2.53;;
79249;SDS011;68679;51.030;7.584;2023-05-19T04:06:25;7.07;;;2.63;;
79249;SDS011;68679;51.030;7.584;2023-05-19T04:08:51;8.77;;;2.70;;
79249;SDS011;68679;51.030;7.584;2023-05-19T04:11:16;5.70;;;2.20;;
79249;SDS011;68679;51.030;7.584;2023-05-19T04:13:43;7.47;;;3.00;;
79249;SDS011;68679;51.030;7.584;2023-05-19T04:16:09;13.55;;;2.60;;
79249;SDS011;68679;51.030;7.584;2023-05-19T04:18:35;6.18;;;2.50;;
79249;SDS011;68679;51.030;7.584;2023-05-19T04:21:00;8.07;;;2.70;;
79249;SDS011;68679;51.030;7.584;2023-05-19T04:23:25;4.50;;;2.30;;
79249;SDS011;68679;51.030;7.584;2023-05-19T04:25:51;6.07;;;2.80;;
79249;SDS011;68679;51.030;7.584;2023-05-19T04:28:18;5.47;;;2.58;;
79249;SDS011;68679;51.030;7.584;2023-05-19T04:30:43;8.73;;;2.73;;
79249;SDS011;68679;51.030;7.584;2023-05-19T04:33:10;9.68;;;2.58;;
79249;SDS011;68679;51.030;7.584;2023-05-19T04:35:35;6.28;;;2.40;;
79249;SDS011;68679;51.030;7.584;2023-05-19T04:38:02;8.13;;;2.90;;
79249;SDS011;68679;51.030;7.584;2023-05-19T04:40:27;6.57;;;2.58;;
79249;SDS011;68679;51.030;7.584;2023-05-19T04:42:54;6.72;;;2.75;;
79249;SDS011;68679;51.030;7.584;2023-05-19T04:45:21;8.98;;;2.70;;
79249;SDS011;68679;51.030;7.584;2023-05-19T04:47:47;6.30;;;2.80;;
79249;SDS011;68679;51.030;7.584;2023-05-19T04:50:12;7.88;;;2.60;;
79249;SDS011;68679;51.030;7.584;2023-05-19T04:52:38;6.57;;;2.83;;
79249;SDS011;68679;51.030;7.584;2023-05-19T04:55:03;5.53;;;2.92;;
79249;SDS011;68679;51.030;7.584;2023-05-19T04:57:29;5.55;;;2.67;;
79249;SDS011;68679;51.030;7.584;2023-05-19T04:59:55;4.63;;;2.15;;
79249;SDS011;68679;51.030;7.584;2023-05-19T05:02:24;5.80;;;2.10;;
79249;SDS011;68679;51.030;7.584;2023-05-19T05:04:52;8.07;;;2.63;;
79249;SDS011;68679;51.030;7.584;2023-05-19T05:07:20;8.07;;;2.45;;
79249;SDS011;68679;51.030;7.584;2023-05-19T05:09:46;6.93;;;2.53;;
79249;SDS011;68679;51.030;7.584;2023-05-19T05:12:12;5.30;;;2.22;;
79249;SDS011;68679;51.030;7.584;2023-05-19T05:14:39;4.78;;;2.65;;
79249;SDS011;68679;51.030;7.584;2023-05-19T05:17:05;13.18;;;2.50;;
79249;SDS011;68679;51.030;7.584;2023-05-19T05:19:31;7.50;;;2.95;;
79249;SDS011;68679;51.030;7.584;2023-05-19T05:21:57;9.57;;;2.67;;
79249;SDS011;68679;51.030;7.584;2023-05-19T05:24:23;5.57;;;2.70;;
79249;SDS011;68679;51.030;7.584;2023-05-19T05:26:49;7.90;;;2.80;;
79249;SDS011;68679;51.030;7.584;2023-05-19T05:29:14;5.53;;;2.78;;
79249;SDS011;68679;51.030;7.584;2023-05-19T05:31:39;6.17;;;2.30;;
79249;SDS011;68679;51.030;7.584;2023-05-19T05:34:05;8.83;;;2.27;;
79249;SDS011;68679;51.030;7.584;2023-05-19T05:36:30;10.57;;;3.22;;
79249;SDS011;68679;51.030;7.584;2023-05-19T05:38:55;5.07;;;2.67;;
79249;SDS011;68679;51.030;7.584;2023-05-19T05:41:21;7.50;;;2.90;;
79249;SDS011;68679;51.030;7.584;2023-05-19T05:43:46;8.30;;;2.72;;
79249;SDS011;68679;51.030;7.584;2023-05-19T05:46:12;5.55;;;2.40;;
79249;SDS011;68679;51.030;7.584;2023-05-19T05:48:37;4.13;;;2.40;;
79249;SDS011;68679;51.030;7.584;2023-05-19T05:51:03;7.45;;;2.83;;
79249;SDS011;68679;51.030;7.584;2023-05-19T05:53:30;8.80;;;2.65;;
79249;SDS011;68679;51.030;7.584;2023-05-19T05:55:58;6.65;;;2.58;;
79249;SDS011;68679;51.030;7.584;2023-05-19T05:58:24;7.30;;;2.42;;
79249;SDS011;68679;51.030;7.584;2023-05-19T06:00:50;6.03;;;2.45;;
79249;SDS011;68679;51.030;7.584;2023-05-19T06:03:17;8.55;;;2.30;;
79249;SDS011;68679;51.030;7.584;2023-05-19T06:05:45;7.18;;;2.88;;
79249;SDS011;68679;51.030;7.584;2023-05-19T06:08:11;8.60;;;3.03;;
79249;SDS011;68679;51.030;7.584;2023-05-19T06:10:36;6.63;;;2.50;;
79249;SDS011;68679;51.030;7.584;2023-05-19T06:13:02;8.20;;;2.15;;
79249;SDS011;68679;51.030;7.584;2023-05-19T06:15:28;5.03;;;2.57;;
79249;SDS011;68679;51.030;7.584;2023-05-19T06:17:53;6.33;;;2.63;;
79249;SDS011;68679;51.030;7.584;2023-05-19T06:20:18;7.47;;;2.60;;
79249;SDS011;68679;51.030;7.584;2023-05-19T06:22:43;6.97;;;1.90;;
79249;SDS011;68679;51.030;7.584;2023-05-19T06:25:09;7.20;;;2.30;;
79249;SDS011;68679;51.030;7.584;2023-05-19T06:27:34;6.03;;;2.20;;
79249;SDS011;68679;51.030;7.584;2023-05-19T06:29:59;5.90;;;2.20;;
79249;SDS011;68679;51.030;7.584;2023-05-19T06:32:25;8.37;;;2.30;;
79249;SDS011;68679;51.030;7.584;2023-05-19T06:34:50;5.10;;;2.43;;
79249;SDS011;68679;51.030;7.584;2023-05-19T06:37:21;7.10;;;2.55;;
79249;SDS011;68679;51.030;7.584;2023-05-19T06:39:50;5.90;;;2.15;;
79249;SDS011;68679;51.030;7.584;2023-05-19T06:42:19;5.45;;;2.17;;
79249;SDS011;68679;51.030;7.584;2023-05-19T06:44:49;5.72;;;2.38;;
79249;SDS011;68679;51.030;7.584;2023-05-19T06:47:15;7.40;;;1.98;;
79249;SDS011;68679;51.030;7.584;2023-05-19T06:49:40;6.15;;;2.28;;
79249;SDS011;68679;51.030;7.584;2023-05-19T06:52:06;8.20;;;2.50;;
79249;SDS011;68679;51.030;7.584;2023-05-19T06:54:31;6.13;;;2.10;;
79249;SDS011;68679;51.030;7.584;2023-05-19T06:56:57;10.37;;;2.93;;
79249;SDS011;68679;51.030;7.584;2023-05-19T06:59:22;10.47;;;2.33;;
79249;SDS011;68679;51.030;7.584;2023-05-19T07:01:47;9.23;;;2.30;;
79249;SDS011;68679;51.030;7.584;2023-05-19T07:04:13;7.90;;;2.10;;
79249;SDS011;68679;51.030;7.584;2023-05-19T07:06:38;7.70;;;2.75;;
79249;SDS011;68679;51.030;7.584;2023-05-19T07:09:03;7.60;;;2.13;;
79249;SDS011;68679;51.030;7.584;2023-05-19T07:11:29;6.50;;;2.35;;
79249;SDS011;68679;51.030;7.584;2023-05-19T07:13:55;8.43;;;2.25;;
79249;SDS011;68679;51.030;7.584;2023-05-19T07:16:20;6.63;;;1.93;;
79249;SDS011;68679;51.030;7.584;2023-05-19T07:18:45;7.77;;;2.10;;
79249;SDS011;68679;51.030;7.584;2023-05-19T07:21:10;5.73;;;2.43;;
79249;SDS011;68679;51.030;7.584;2023-05-19T07:23:36;6.43;;;2.27;;
79249;SDS011;68679;51.030;7.584;2023-05-19T07:26:01;5.87;;;1.97;;
79249;SDS011;68679;51.030;7.584;2023-05-19T07:28:26;7.10;;;1.97;;
79249;SDS011;68679;51.030;7.584;2023-05-19T07:30:52;4.37;;;2.00;;
79249;SDS011;68679;51.030;7.584;2023-05-19T07:33:17;5.13;;;1.80;;
79249;SDS011;68679;51.030;7.584;2023-05-19T07:35:42;5.40;;;2.30;;
79249;SDS011;68679;51.030;7.584;2023-05-19T07:38:09;4.97;;;1.85;;
79249;SDS011;68679;51.030;7.584;2023-05-19T07:40:34;4.37;;;1.80;;
79249;SDS011;68679;51.030;7.584;2023-05-19T07:43:00;7.90;;;2.03;;
79249;SDS011;68679;51.030;7.584;2023-05-19T07:45:25;6.23;;;1.90;;
79249;SDS011;68679;51.030;7.584;2023-05-19T07:47:50;5.40;;;1.60;;
79249;SDS011;68679;51.030;7.584;2023-05-19T07:50:17;6.60;;;2.00;;
79249;SDS011;68679;51.030;7.584;2023-05-19T07:52:42;4.97;;;2.00;;
79249;SDS011;68679;51.030;7.584;2023-05-19T07:55:07;7.80;;;2.00;;
79249;SDS011;68679;51.030;7.584;2023-05-19T07:57:33;5.13;;;2.30;;
79249;SDS011;68679;51.030;7.584;2023-05-19T07:59:58;5.03;;;2.20;;
79249;SDS011;68679;51.030;7.584;2023-05-19T08:02:23;7.70;;;2.00;;
79249;SDS011;68679;51.030;7.584;2023-05-19T08:04:48;7.63;;;2.37;;
79249;SDS011;68679;51.030;7.584;2023-05-19T08:07:14;5.95;;;1.80;;
79249;SDS011;68679;51.030;7.584;2023-05-19T08:09:39;9.33;;;1.90;;
79249;SDS011;68679;51.030;7.584;2023-05-19T08:12:04;4.93;;;1.83;;
79249;SDS011;68679;51.030;7.584;2023-05-19T08:14:30;8.23;;;2.50;;
79249;SDS011;68679;51.030;7.584;2023-05-19T08:16:57;2.33;;;1.58;;
79249;SDS011;68679;51.030;7.584;2023-05-19T08:19:22;10.70;;;2.17;;
79249;SDS011;68679;51.030;7.584;2023-05-19T08:21:47;7.70;;;1.87;;
79249;SDS011;68679;51.030;7.584;2023-05-19T08:24:13;4.60;;;1.88;;
79249;SDS011;68679;51.030;7.584;2023-05-19T08:26:39;7.80;;;2.28;;
79249;SDS011;68679;51.030;7.584;2023-05-19T08:29:04;5.20;;;1.75;;
79249;SDS011;68679;51.030;7.584;2023-05-19T08:31:30;5.53;;;1.97;;
79249;SDS011;68679;51.030;7.584;2023-05-19T08:33:55;5.03;;;1.90;;
79249;SDS011;68679;51.030;7.584;2023-05-19T08:36:20;7.67;;;1.73;;
79249;SDS011;68679;51.030;7.584;2023-05-19T08:38:47;4.93;;;1.80;;
79249;SDS011;68679;51.030;7.584;2023-05-19T08:41:12;6.87;;;2.00;;
79249;SDS011;68679;51.030;7.584;2023-05-19T08:43:37;5.90;;;1.70;;
79249;SDS011;68679;51.030;7.584;2023-05-19T08:46:03;5.65;;;2.20;;
79249;SDS011;68679;51.030;7.584;2023-05-19T08:48:34;5.75;;;1.77;;
79249;SDS011;68679;51.030;7.584;2023-05-19T08:51:06;6.15;;;1.60;;
79249;SDS011;68679;51.030;7.584;2023-05-19T08:53:41;5.93;;;2.10;;
79249;SDS011;68679;51.030;7.584;2023-05-19T08:56:21;4.32;;;1.90;;
79249;SDS011;68679;51.030;7.584;2023-05-19T08:58:48;8.15;;;2.15;;
79249;SDS011;68679;51.030;7.584;2023-05-19T09:01:14;5.43;;;1.67;;
79249;SDS011;68679;51.030;7.584;2023-05-19T09:03:40;7.47;;;2.10;;
79249;SDS011;68679;51.030;7.584;2023-05-19T09:06:07;10.48;;;2.00;;
79249;SDS011;68679;51.030;7.584;2023-05-19T09:08:33;4.43;;;1.90;;
79249;SDS011;68679;51.030;7.584;2023-05-19T09:10:58;6.05;;;2.65;;
79249;SDS011;68679;51.030;7.584;2023-05-19T09:13:24;10.00;;;2.13;;
79249;SDS011;68679;51.030;7.584;2023-05-19T09:15:51;4.63;;;1.55;;
79249;SDS011;68679;51.030;7.584;2023-05-19T09:18:17;4.85;;;1.80;;
79249;SDS011;68679;51.030;7.584;2023-05-19T09:20:42;6.33;;;1.90;;
79249;SDS011;68679;51.030;7.584;2023-05-19T09:23:12;6.35;;;2.10;;
79249;SDS011;68679;51.030;7.584;2023-05-19T09:28:13;6.47;;;1.88;;
79249;SDS011;68679;51.030;7.584;2023-05-19T09:30:38;6.57;;;1.67;;
79249;SDS011;68679;51.030;7.584;2023-05-19T09:33:03;5.27;;;1.70;;
79249;SDS011;68679;51.030;7.584;2023-05-19T09:37:59;4.57;;;1.90;;
79249;SDS011;68679;51.030;7.584;2023-05-19T09:40:26;5.55;;;1.80;;
79249;SDS011;68679;51.030;7.584;2023-05-19T09:42:52;12.27;;;2.00;;
79249;SDS011;68679;51.030;7.584;2023-05-19T09:45:18;4.80;;;1.60;;
79249;SDS011;68679;51.030;7.584;2023-05-19T09:47:44;5.35;;;1.92;;
79249;SDS011;68679;51.030;7.584;2023-05-19T09:50:10;5.85;;;1.90;;
79249;SDS011;68679;51.030;7.584;2023-05-19T09:52:38;5.28;;;1.65;;
79249;SDS011;68679;51.030;7.584;2023-05-19T09:55:10;5.03;;;2.00;;
79249;SDS011;68679;51.030;7.584;2023-05-19T09:57:37;5.28;;;2.00;;
79249;SDS011;68679;51.030;7.584;2023-05-19T10:00:04;5.93;;;1.80;;
79249;SDS011;68679;51.030;7.584;2023-05-19T10:02:44;6.82;;;2.00;;
79249;SDS011;68679;51.030;7.584;2023-05-19T10:05:14;6.43;;;1.80;;
79249;SDS011;68679;51.030;7.584;2023-05-19T10:07:50;3.97;;;1.75;;
79249;SDS011;68679;51.030;7.584;2023-05-19T10:10:16;3.30;;;1.58;;
79249;SDS011;68679;51.030;7.584;2023-05-19T10:12:46;3.58;;;1.90;;
79249;SDS011;68679;51.030;7.584;2023-05-19T10:15:12;4.93;;;1.63;;
79249;SDS011;68679;51.030;7.584;2023-05-19T10:17:39;5.20;;;1.77;;
79249;SDS011;68679;51.030;7.584;2023-05-19T10:20:10;5.25;;;1.98;;
79249;SDS011;68679;51.030;7.584;2023-05-19T10:22:37;4.75;;;1.67;;
79249;SDS011;68679;51.030;7.584;2023-05-19T10:25:04;6.85;;;1.67;;
79249;SDS011;68679;51.030;7.584;2023-05-19T10:27:30;4.15;;;1.45;;
79249;SDS011;68679;51.030;7.584;2023-05-19T10:29:59;7.65;;;2.00;;
79249;SDS011;68679;51.030;7.584;2023-05-19T10:32:29;7.38;;;1.70;;
79249;SDS011;68679;51.030;7.584;2023-05-19T10:40:26;5.13;;;1.80;;
79249;SDS011;68679;51.030;7.584;2023-05-19T10:45:40;7.10;;;1.83;;
79249;SDS011;68679;51.030;7.584;2023-05-19T10:48:20;7.55;;;2.03;;
79249;SDS011;68679;51.030;7.584;2023-05-19T10:50:47;7.78;;;1.80;;
79249;SDS011;68679;51.030;7.584;2023-05-19T10:53:13;5.60;;;1.83;;
79249;SDS011;68679;51.030;7.584;2023-05-19T10:55:45;7.50;;;1.52;;
79249;SDS011;68679;51.030;7.584;2023-05-19T11:01:15;7.70;;;1.90;;
79249;SDS011;68679;51.030;7.584;2023-05-19T11:03:48;7.03;;;1.90;;
79249;SDS011;68679;51.030;7.584;2023-05-19T11:06:24;7.35;;;1.90;;
79249;SDS011;68679;51.030;7.584;2023-05-19T11:08:55;5.78;;;1.70;;
79249;SDS011;68679;51.030;7.584;2023-05-19T11:11:22;5.85;;;1.80;;
79249;SDS011;68679;51.030;7.584;2023-05-19T11:13:54;5.00;;;1.92;;
79249;SDS011;68679;51.030;7.584;2023-05-19T11:16:32;5.53;;;1.75;;
79249;SDS011;68679;51.030;7.584;2023-05-19T11:18:58;10.15;;;2.10;;
79249;SDS011;68679;51.030;7.584;2023-05-19T11:21:39;7.88;;;1.88;;
79249;SDS011;68679;51.030;7.584;2023-05-19T11:24:38;6.72;;;1.90;;
79249;SDS011;68679;51.030;7.584;2023-05-19T11:29:55;4.50;;;1.73;;
79249;SDS011;68679;51.030;7.584;2023-05-19T11:32:28;3.17;;;1.85;;
79249;SDS011;68679;51.030;7.584;2023-05-19T11:34:54;5.50;;;1.70;;
79249;SDS011;68679;51.030;7.584;2023-05-19T11:37:20;2.80;;;1.58;;
79249;SDS011;68679;51.030;7.584;2023-05-19T11:39:45;6.03;;;1.73;;
79249;SDS011;68679;51.030;7.584;2023-05-19T11:42:11;4.25;;;1.67;;
79249;SDS011;68679;51.030;7.584;2023-05-19T11:44:37;5.38;;;1.55;;
79249;SDS011;68679;51.030;7.584;2023-05-19T11:47:05;4.68;;;1.83;;
79249;SDS011;68679;51.030;7.584;2023-05-19T11:49:30;4.95;;;1.90;;
79249;SDS011;68679;51.030;7.584;2023-05-19T11:51:56;4.38;;;1.80;;
79249;SDS011;68679;51.030;7.584;2023-05-19T11:54:27;5.68;;;1.90;;
79249;SDS011;68679;51.030;7.584;2023-05-19T11:56:55;5.03;;;1.75;;
79249;SDS011;68679;51.030;7.584;2023-05-19T11:59:27;6.50;;;1.80;;
79249;SDS011;68679;51.030;7.584;2023-05-19T12:01:53;3.70;;;1.55;;
79249;SDS011;68679;51.030;7.584;2023-05-19T12:04:19;7.97;;;2.05;;
79249;SDS011;68679;51.030;7.584;2023-05-19T12:06:45;4.13;;;1.75;;
79249;SDS011;68679;51.030;7.584;2023-05-19T12:09:13;4.93;;;1.70;;
79249;SDS011;68679;51.030;7.584;2023-05-19T12:11:38;4.40;;;1.98;;
79249;SDS011;68679;51.030;7.584;2023-05-19T12:14:04;3.80;;;1.88;;
79249;SDS011;68679;51.030;7.584;2023-05-19T12:16:33;6.63;;;2.40;;
79249;SDS011;68679;51.030;7.584;2023-05-19T12:18:59;6.53;;;2.00;;
79249;SDS011;68679;51.030;7.584;2023-05-19T12:21:25;5.75;;;1.90;;
79249;SDS011;68679;51.030;7.584;2023-05-19T12:23:50;5.73;;;1.80;;
79249;SDS011;68679;51.030;7.584;2023-05-19T12:26:16;6.10;;;1.95;;
79249;SDS011;68679;51.030;7.584;2023-05-19T12:28:43;5.10;;;2.17;;
79249;SDS011;68679;51.030;7.584;2023-05-19T12:31:09;5.43;;;1.83;;
79249;SDS011;68679;51.030;7.584;2023-05-19T12:33:35;5.13;;;1.70;;
79249;SDS011;68679;51.030;7.584;2023-05-19T12:36:00;4.87;;;1.80;;
79249;SDS011;68679;51.030;7.584;2023-05-19T12:38:25;7.17;;;1.87;;
79249;SDS011;68679;51.030;7.584;2023-05-19T12:40:51;5.90;;;2.13;;
79249;SDS011;68679;51.030;7.584;2023-05-19T12:43:22;4.38;;;1.55;;
79249;SDS011;68679;51.030;7.584;2023-05-19T12:45:48;3.75;;;1.48;;
79249;SDS011;68679;51.030;7.584;2023-05-19T12:48:14;6.67;;;1.70;;
79249;SDS011;68679;51.030;7.584;2023-05-19T12:50:39;4.72;;;1.77;;
79249;SDS011;68679;51.030;7.584;2023-05-19T12:53:09;5.97;;;1.80;;
79249;SDS011;68679;51.030;7.584;2023-05-19T12:55:39;4.20;;;2.17;;
79249;SDS011;68679;51.030;7.584;2023-05-19T12:58:08;5.18;;;1.73;;
79249;SDS011;68679;51.030;7.584;2023-05-19T13:00:38;4.45;;;1.67;;
79249;SDS011;68679;51.030;7.584;2023-05-19T13:03:05;5.10;;;1.70;;
79249;SDS011;68679;51.030;7.584;2023-05-19T13:05:39;5.10;;;2.05;;
79249;SDS011;68679;51.030;7.584;2023-05-19T13:08:08;4.40;;;1.70;;
79249;SDS011;68679;51.030;7.584;2023-05-19T13:10:47;4.15;;;1.95;;
79249;SDS011;68679;51.030;7.584;2023-05-19T13:13:13;4.97;;;1.92;;
79249;SDS011;68679;51.030;7.584;2023-05-19T13:15:39;6.15;;;2.13;;
79249;SDS011;68679;51.030;7.584;2023-05-19T13:18:07;5.18;;;1.55;;
79249;SDS011;68679;51.030;7.584;2023-05-19T13:20:34;5.85;;;1.70;;
79249;SDS011;68679;51.030;7.584;2023-05-19T13:23:03;5.65;;;2.20;;
79249;SDS011;68679;51.030;7.584;2023-05-19T13:25:29;3.67;;;1.60;;
79249;SDS011;68679;51.030;7.584;2023-05-19T13:27:56;2.92;;;1.52;;
79249;SDS011;68679;51.030;7.584;2023-05-19T13:30:25;4.38;;;1.83;;
79249;SDS011;68679;51.030;7.584;2023-05-19T13:32:50;5.32;;;1.80;;
79249;SDS011;68679;51.030;7.584;2023-05-19T13:35:16;3.47;;;1.80;;
79249;SDS011;68679;51.030;7.584;2023-05-19T13:37:42;4.20;;;1.73;;
79249;SDS011;68679;51.030;7.584;2023-05-19T13:40:07;4.45;;;2.08;;
79249;SDS011;68679;51.030;7.584;2023-05-19T13:42:34;4.38;;;1.60;;
79249;SDS011;68679;51.030;7.584;2023-05-19T13:44:59;5.80;;;1.92;;
79249;SDS011;68679;51.030;7.584;2023-05-19T13:47:25;6.43;;;1.92;;
79249;SDS011;68679;51.030;7.584;2023-05-19T13:49:51;5.07;;;1.73;;
79249;SDS011;68679;51.030;7.584;2023-05-19T13:52:17;4.57;;;2.08;;
79249;SDS011;68679;51.030;7.584;2023-05-19T13:54:44;4.80;;;1.90;;
79249;SDS011;68679;51.030;7.584;2023-05-19T13:57:10;4.57;;;1.80;;
79249;SDS011;68679;51.030;7.584;2023-05-19T13:59:35;4.78;;;1.80;;
79249;SDS011;68679;51.030;7.584;2023-05-19T14:02:01;5.30;;;1.73;;
79249;SDS011;68679;51.030;7.584;2023-05-19T14:04:26;9.87;;;2.17;;
79249;SDS011;68679;51.030;7.584;2023-05-19T14:06:52;5.97;;;2.03;;
79249;SDS011;68679;51.030;7.584;2023-05-19T14:09:18;3.50;;;1.88;;
79249;SDS011;68679;51.030;7.584;2023-05-19T14:11:43;3.75;;;1.88;;
79249;SDS011;68679;51.030;7.584;2023-05-19T14:14:08;3.87;;;1.60;;
79249;SDS011;68679;51.030;7.584;2023-05-19T14:16:34;5.67;;;2.07;;
79249;SDS011;68679;51.030;7.584;2023-05-19T14:18:59;4.30;;;1.93;;
79249;SDS011;68679;51.030;7.584;2023-05-19T14:21:24;4.85;;;2.00;;
79249;SDS011;68679;51.030;7.584;2023-05-19T14:23:50;5.00;;;1.90;;
79249;SDS011;68679;51.030;7.584;2023-05-19T14:26:15;4.10;;;2.03;;
79249;SDS011;68679;51.030;7.584;2023-05-19T14:28:41;3.77;;;1.67;;
79249;SDS011;68679;51.030;7.584;2023-05-19T14:31:12;4.40;;;1.60;;
79249;SDS011;68679;51.030;7.584;2023-05-19T14:33:39;6.32;;;2.35;;
79249;SDS011;68679;51.030;7.584;2023-05-19T14:36:05;2.95;;;1.45;;
79249;SDS011;68679;51.030;7.584;2023-05-19T14:38:31;6.78;;;1.92;;
79249;SDS011;68679;51.030;7.584;2023-05-19T14:40:56;4.73;;;1.87;;
79249;SDS011;68679;51.030;7.584;2023-05-19T14:43:21;5.03;;;2.13;;
79249;SDS011;68679;51.030;7.584;2023-05-19T14:45:47;3.33;;;1.80;;
79249;SDS011;68679;51.030;7.584;2023-05-19T14:48:12;5.03;;;1.88;;
79249;SDS011;68679;51.030;7.584;2023-05-19T14:50:38;4.28;;;1.90;;
79249;SDS011;68679;51.030;7.584;2023-05-19T14:53:03;4.55;;;1.95;;
79249;SDS011;68679;51.030;7.584;2023-05-19T14:55:29;7.05;;;2.03;;
79249;SDS011;68679;51.030;7.584;2023-05-19T14:57:54;4.27;;;1.80;;
79249;SDS011;68679;51.030;7.584;2023-05-19T15:00:19;4.00;;;1.70;;
79249;SDS011;68679;51.030;7.584;2023-05-19T15:02:45;7.75;;;1.70;;
79249;SDS011;68679;51.030;7.584;2023-05-19T15:05:10;5.50;;;2.20;;
79249;SDS011;68679;51.030;7.584;2023-05-19T15:07:35;4.40;;;1.70;;
79249;SDS011;68679;51.030;7.584;2023-05-19T15:10:01;4.05;;;1.70;;
79249;SDS011;68679;51.030;7.584;2023-05-19T15:12:28;3.92;;;2.08;;
79249;SDS011;68679;51.030;7.584;2023-05-19T15:14:53;3.95;;;1.90;;
79249;SDS011;68679;51.030;7.584;2023-05-19T15:17:18;4.83;;;1.60;;